Glouster Point, Virginia
Current Conditions -  °F | °C
As of 5:54 PM on Wednesday 22 Oct 2014 (Local Time) from KPHF Reporting Station
Overcast Overcast  
Wind Chill: 57°   Ceiling: 1700
Heat Index: 57°   Visibility: 10mi
Dew Point: 51°   Wind: 13mph
Humidity: 81%   Direction: 330°NNW
Pressure: 29.87"   Gusts: 24mph
Location:  37.2577°N, 76.4965°W
Report Text: KPHF 222154Z AUTO 33011G21KT 10SM OVC017 14/11 A2987 RMK AO2 RAE2056 SLP115 P0000 T01390106 TSNO
Loading
Personal Weather Stations






























Interactive Weather Map
Tropical Storm Tracking
New forecast layout! Learn more

10-Day Weather Forecast

Advertisements
Track Severe Weather on mobile